sensor_id;sensor_type;location;lat;lon;timestamp;P1;durP1;ratioP1;P2;durP2;ratioP2
69410;SDS011;56604;48.652;9.194;2023-02-22T00:02:24;18.70;;;11.27;;
69410;SDS011;56604;48.652;9.194;2023-02-22T00:04:51;28.40;;;14.20;;
69410;SDS011;56604;48.652;9.194;2023-02-22T00:07:17;12.77;;;7.53;;
69410;SDS011;56604;48.652;9.194;2023-02-22T00:09:45;20.60;;;10.30;;
69410;SDS011;56604;48.652;9.194;2023-02-22T00:12:10;17.37;;;8.47;;
69410;SDS011;56604;48.652;9.194;2023-02-22T00:14:36;11.57;;;7.17;;
69410;SDS011;56604;48.652;9.194;2023-02-22T00:17:01;14.47;;;7.77;;
69410;SDS011;56604;48.652;9.194;2023-02-22T00:19:26;14.83;;;6.57;;
69410;SDS011;56604;48.652;9.194;2023-02-22T00:21:54;19.93;;;7.83;;
69410;SDS011;56604;48.652;9.194;2023-02-22T00:24:21;12.20;;;7.30;;
69410;SDS011;56604;48.652;9.194;2023-02-22T00:26:51;12.43;;;6.77;;
69410;SDS011;56604;48.652;9.194;2023-02-22T00:29:19;13.67;;;6.37;;
69410;SDS011;56604;48.652;9.194;2023-02-22T00:31:54;12.60;;;6.70;;
69410;SDS011;56604;48.652;9.194;2023-02-22T00:34:19;10.47;;;6.67;;
69410;SDS011;56604;48.652;9.194;2023-02-22T00:36:48;19.17;;;6.60;;
69410;SDS011;56604;48.652;9.194;2023-02-22T00:39:14;10.10;;;6.07;;
69410;SDS011;56604;48.652;9.194;2023-02-22T00:41:40;11.83;;;6.27;;
69410;SDS011;56604;48.652;9.194;2023-02-22T00:44:08;14.77;;;6.87;;
69410;SDS011;56604;48.652;9.194;2023-02-22T00:46:34;18.93;;;6.40;;
69410;SDS011;56604;48.652;9.194;2023-02-22T00:48:59;7.93;;;5.60;;
69410;SDS011;56604;48.652;9.194;2023-02-22T00:51:25;12.03;;;6.57;;
69410;SDS011;56604;48.652;9.194;2023-02-22T00:53:50;9.07;;;5.80;;
69410;SDS011;56604;48.652;9.194;2023-02-22T00:56:16;10.40;;;5.70;;
69410;SDS011;56604;48.652;9.194;2023-02-22T00:58:41;15.07;;;6.03;;
69410;SDS011;56604;48.652;9.194;2023-02-22T01:01:06;11.37;;;5.43;;
69410;SDS011;56604;48.652;9.194;2023-02-22T01:03:32;15.40;;;5.30;;
69410;SDS011;56604;48.652;9.194;2023-02-22T01:05:59;7.67;;;5.30;;
69410;SDS011;56604;48.652;9.194;2023-02-22T01:08:24;11.00;;;5.70;;
69410;SDS011;56604;48.652;9.194;2023-02-22T01:10:49;9.47;;;5.97;;
69410;SDS011;56604;48.652;9.194;2023-02-22T01:13:16;14.20;;;6.37;;
69410;SDS011;56604;48.652;9.194;2023-02-22T01:15:43;15.17;;;6.17;;
69410;SDS011;56604;48.652;9.194;2023-02-22T01:18:10;14.93;;;6.30;;
69410;SDS011;56604;48.652;9.194;2023-02-22T01:20:36;11.40;;;5.83;;
69410;SDS011;56604;48.652;9.194;2023-02-22T01:23:02;12.03;;;5.90;;
69410;SDS011;56604;48.652;9.194;2023-02-22T01:25:31;10.90;;;5.83;;
69410;SDS011;56604;48.652;9.194;2023-02-22T01:27:57;8.40;;;5.37;;
69410;SDS011;56604;48.652;9.194;2023-02-22T01:30:24;14.90;;;6.13;;
69410;SDS011;56604;48.652;9.194;2023-02-22T01:32:52;11.13;;;5.97;;
69410;SDS011;56604;48.652;9.194;2023-02-22T01:35:20;11.43;;;6.20;;
69410;SDS011;56604;48.652;9.194;2023-02-22T01:37:47;11.50;;;6.50;;
69410;SDS011;56604;48.652;9.194;2023-02-22T01:40:15;9.60;;;5.80;;
69410;SDS011;56604;48.652;9.194;2023-02-22T01:42:45;9.50;;;6.13;;
69410;SDS011;56604;48.652;9.194;2023-02-22T01:45:34;11.13;;;6.60;;
69410;SDS011;56604;48.652;9.194;2023-02-22T01:53:34;8.00;;;5.67;;
69410;SDS011;56604;48.652;9.194;2023-02-22T01:56:04;17.47;;;5.33;;
69410;SDS011;56604;48.652;9.194;2023-02-22T01:58:30;10.37;;;5.13;;
69410;SDS011;56604;48.652;9.194;2023-02-22T02:00:58;13.43;;;5.73;;
69410;SDS011;56604;48.652;9.194;2023-02-22T02:03:26;11.17;;;5.57;;
69410;SDS011;56604;48.652;9.194;2023-02-22T02:05:58;10.07;;;4.90;;
69410;SDS011;56604;48.652;9.194;2023-02-22T02:08:36;11.20;;;5.90;;
69410;SDS011;56604;48.652;9.194;2023-02-22T02:11:04;14.77;;;5.73;;
69410;SDS011;56604;48.652;9.194;2023-02-22T02:13:31;14.90;;;5.10;;
69410;SDS011;56604;48.652;9.194;2023-02-22T02:15:56;8.93;;;5.23;;
69410;SDS011;56604;48.652;9.194;2023-02-22T02:18:22;8.63;;;5.50;;
69410;SDS011;56604;48.652;9.194;2023-02-22T02:24:25;13.03;;;5.10;;
69410;SDS011;56604;48.652;9.194;2023-02-22T02:27:11;8.23;;;5.10;;
69410;SDS011;56604;48.652;9.194;2023-02-22T02:32:44;6.93;;;5.07;;
69410;SDS011;56604;48.652;9.194;2023-02-22T02:35:38;11.53;;;5.37;;
69410;SDS011;56604;48.652;9.194;2023-02-22T02:41:08;6.60;;;4.93;;
69410;SDS011;56604;48.652;9.194;2023-02-22T02:43:46;10.33;;;5.03;;
69410;SDS011;56604;48.652;9.194;2023-02-22T02:46:34;9.63;;;5.03;;
69410;SDS011;56604;48.652;9.194;2023-02-22T02:49:19;7.90;;;4.50;;
69410;SDS011;56604;48.652;9.194;2023-02-22T02:51:49;10.40;;;5.70;;
69410;SDS011;56604;48.652;9.194;2023-02-22T02:54:18;8.00;;;5.43;;
69410;SDS011;56604;48.652;9.194;2023-02-22T02:56:45;8.03;;;5.10;;
69410;SDS011;56604;48.652;9.194;2023-02-22T03:05:09;9.33;;;4.97;;
69410;SDS011;56604;48.652;9.194;2023-02-22T03:07:48;10.93;;;5.83;;
69410;SDS011;56604;48.652;9.194;2023-02-22T03:13:15;15.53;;;5.53;;
69410;SDS011;56604;48.652;9.194;2023-02-22T03:18:57;8.53;;;5.90;;
69410;SDS011;56604;48.652;9.194;2023-02-22T03:21:54;11.80;;;6.03;;
69410;SDS011;56604;48.652;9.194;2023-02-22T03:24:29;6.90;;;5.70;;
69410;SDS011;56604;48.652;9.194;2023-02-22T03:27:00;12.27;;;6.57;;
69410;SDS011;56604;48.652;9.194;2023-02-22T03:29:33;8.07;;;6.03;;
69410;SDS011;56604;48.652;9.194;2023-02-22T03:32:04;14.63;;;6.20;;
69410;SDS011;56604;48.652;9.194;2023-02-22T03:34:33;22.83;;;6.07;;
69410;SDS011;56604;48.652;9.194;2023-02-22T03:37:06;8.27;;;6.10;;
69410;SDS011;56604;48.652;9.194;2023-02-22T03:39:38;14.77;;;6.83;;
69410;SDS011;56604;48.652;9.194;2023-02-22T03:42:07;8.10;;;6.10;;
69410;SDS011;56604;48.652;9.194;2023-02-22T03:44:37;13.07;;;6.73;;
69410;SDS011;56604;48.652;9.194;2023-02-22T03:47:05;7.77;;;5.97;;
69410;SDS011;56604;48.652;9.194;2023-02-22T03:49:51;10.50;;;6.20;;
69410;SDS011;56604;48.652;9.194;2023-02-22T03:52:21;12.10;;;5.40;;
69410;SDS011;56604;48.652;9.194;2023-02-22T03:54:50;13.53;;;5.67;;
69410;SDS011;56604;48.652;9.194;2023-02-22T03:57:27;15.02;;;6.00;;
69410;SDS011;56604;48.652;9.194;2023-02-22T03:59:57;10.00;;;5.53;;
69410;SDS011;56604;48.652;9.194;2023-02-22T04:02:23;8.30;;;5.50;;
69410;SDS011;56604;48.652;9.194;2023-02-22T04:04:48;16.87;;;5.60;;
69410;SDS011;56604;48.652;9.194;2023-02-22T04:07:14;8.20;;;5.97;;
69410;SDS011;56604;48.652;9.194;2023-02-22T04:09:39;9.50;;;5.80;;
69410;SDS011;56604;48.652;9.194;2023-02-22T04:12:05;8.00;;;5.67;;
69410;SDS011;56604;48.652;9.194;2023-02-22T04:14:31;15.63;;;6.60;;
69410;SDS011;56604;48.652;9.194;2023-02-22T04:16:56;13.10;;;6.47;;
69410;SDS011;56604;48.652;9.194;2023-02-22T04:19:21;9.40;;;6.50;;
69410;SDS011;56604;48.652;9.194;2023-02-22T04:21:46;12.60;;;6.60;;
69410;SDS011;56604;48.652;9.194;2023-02-22T04:24:12;12.70;;;7.13;;
69410;SDS011;56604;48.652;9.194;2023-02-22T04:26:38;18.57;;;8.07;;
69410;SDS011;56604;48.652;9.194;2023-02-22T04:29:03;16.27;;;7.70;;
69410;SDS011;56604;48.652;9.194;2023-02-22T04:31:29;11.23;;;6.50;;
69410;SDS011;56604;48.652;9.194;2023-02-22T04:33:54;10.60;;;6.70;;
69410;SDS011;56604;48.652;9.194;2023-02-22T04:36:20;10.70;;;6.60;;
69410;SDS011;56604;48.652;9.194;2023-02-22T04:38:45;13.53;;;6.80;;
69410;SDS011;56604;48.652;9.194;2023-02-22T04:41:12;10.43;;;6.90;;
69410;SDS011;56604;48.652;9.194;2023-02-22T04:43:37;8.90;;;6.03;;
69410;SDS011;56604;48.652;9.194;2023-02-22T04:46:02;12.57;;;6.63;;
69410;SDS011;56604;48.652;9.194;2023-02-22T04:48:28;13.57;;;7.73;;
69410;SDS011;56604;48.652;9.194;2023-02-22T04:50:53;14.20;;;7.53;;
69410;SDS011;56604;48.652;9.194;2023-02-22T04:53:19;8.47;;;6.30;;
69410;SDS011;56604;48.652;9.194;2023-02-22T04:55:44;13.00;;;6.13;;
69410;SDS011;56604;48.652;9.194;2023-02-22T04:58:09;12.93;;;5.63;;
69410;SDS011;56604;48.652;9.194;2023-02-22T05:00:35;12.97;;;7.20;;
69410;SDS011;56604;48.652;9.194;2023-02-22T05:03:00;10.97;;;5.87;;
69410;SDS011;56604;48.652;9.194;2023-02-22T05:05:26;10.60;;;6.40;;
69410;SDS011;56604;48.652;9.194;2023-02-22T05:07:51;19.47;;;6.97;;
69410;SDS011;56604;48.652;9.194;2023-02-22T05:10:17;12.10;;;6.43;;
69410;SDS011;56604;48.652;9.194;2023-02-22T05:12:43;11.33;;;7.10;;
69410;SDS011;56604;48.652;9.194;2023-02-22T05:15:09;9.33;;;5.70;;
69410;SDS011;56604;48.652;9.194;2023-02-22T05:17:35;19.60;;;7.60;;
69410;SDS011;56604;48.652;9.194;2023-02-22T05:20:01;16.83;;;6.97;;
69410;SDS011;56604;48.652;9.194;2023-02-22T05:22:28;16.10;;;6.87;;
69410;SDS011;56604;48.652;9.194;2023-02-22T05:24:53;12.27;;;6.77;;
69410;SDS011;56604;48.652;9.194;2023-02-22T05:27:20;9.30;;;6.30;;
69410;SDS011;56604;48.652;9.194;2023-02-22T05:29:46;10.20;;;6.53;;
69410;SDS011;56604;48.652;9.194;2023-02-22T05:32:11;9.70;;;6.30;;
69410;SDS011;56604;48.652;9.194;2023-02-22T05:34:37;18.13;;;5.77;;
69410;SDS011;56604;48.652;9.194;2023-02-22T05:37:02;18.67;;;5.43;;
69410;SDS011;56604;48.652;9.194;2023-02-22T05:39:28;8.40;;;6.87;;
69410;SDS011;56604;48.652;9.194;2023-02-22T05:41:54;10.57;;;5.60;;
69410;SDS011;56604;48.652;9.194;2023-02-22T05:44:19;10.20;;;6.00;;
69410;SDS011;56604;48.652;9.194;2023-02-22T05:46:45;10.10;;;6.20;;
69410;SDS011;56604;48.652;9.194;2023-02-22T05:49:10;12.77;;;6.57;;
69410;SDS011;56604;48.652;9.194;2023-02-22T05:51:35;12.10;;;7.00;;
69410;SDS011;56604;48.652;9.194;2023-02-22T05:54:00;7.50;;;5.90;;
69410;SDS011;56604;48.652;9.194;2023-02-22T05:56:26;10.63;;;6.57;;
69410;SDS011;56604;48.652;9.194;2023-02-22T05:58:52;16.83;;;6.73;;
69410;SDS011;56604;48.652;9.194;2023-02-22T06:01:18;6.17;;;5.20;;
69410;SDS011;56604;48.652;9.194;2023-02-22T06:03:46;10.40;;;5.83;;
69410;SDS011;56604;48.652;9.194;2023-02-22T06:06:12;10.57;;;6.60;;
69410;SDS011;56604;48.652;9.194;2023-02-22T06:08:38;15.50;;;6.77;;
69410;SDS011;56604;48.652;9.194;2023-02-22T06:11:03;8.53;;;6.60;;
69410;SDS011;56604;48.652;9.194;2023-02-22T06:13:29;8.73;;;6.60;;
69410;SDS011;56604;48.652;9.194;2023-02-22T06:15:54;9.37;;;6.40;;
69410;SDS011;56604;48.652;9.194;2023-02-22T06:18:19;15.70;;;6.80;;
69410;SDS011;56604;48.652;9.194;2023-02-22T06:20:45;12.57;;;6.93;;
69410;SDS011;56604;48.652;9.194;2023-02-22T06:23:10;15.37;;;6.90;;
69410;SDS011;56604;48.652;9.194;2023-02-22T06:25:35;12.93;;;6.40;;
69410;SDS011;56604;48.652;9.194;2023-02-22T06:28:02;9.30;;;6.40;;
69410;SDS011;56604;48.652;9.194;2023-02-22T06:30:28;13.10;;;6.73;;
69410;SDS011;56604;48.652;9.194;2023-02-22T06:32:54;9.60;;;6.50;;
69410;SDS011;56604;48.652;9.194;2023-02-22T06:35:19;9.30;;;6.03;;
69410;SDS011;56604;48.652;9.194;2023-02-22T06:37:45;13.00;;;6.40;;
69410;SDS011;56604;48.652;9.194;2023-02-22T06:40:10;9.83;;;6.13;;
69410;SDS011;56604;48.652;9.194;2023-02-22T06:42:37;13.73;;;6.33;;
69410;SDS011;56604;48.652;9.194;2023-02-22T06:45:03;7.70;;;5.60;;
69410;SDS011;56604;48.652;9.194;2023-02-22T06:47:29;10.50;;;6.07;;
69410;SDS011;56604;48.652;9.194;2023-02-22T06:49:54;10.47;;;6.00;;
69410;SDS011;56604;48.652;9.194;2023-02-22T06:52:21;9.23;;;6.80;;
69410;SDS011;56604;48.652;9.194;2023-02-22T06:54:47;10.33;;;6.63;;
69410;SDS011;56604;48.652;9.194;2023-02-22T06:57:13;7.97;;;5.87;;
69410;SDS011;56604;48.652;9.194;2023-02-22T06:59:38;9.43;;;6.37;;
69410;SDS011;56604;48.652;9.194;2023-02-22T07:02:03;15.77;;;6.37;;
69410;SDS011;56604;48.652;9.194;2023-02-22T07:04:29;17.90;;;7.20;;
69410;SDS011;56604;48.652;9.194;2023-02-22T07:06:54;14.63;;;7.80;;
69410;SDS011;56604;48.652;9.194;2023-02-22T07:09:20;9.70;;;6.57;;
69410;SDS011;56604;48.652;9.194;2023-02-22T07:11:45;13.50;;;7.70;;
69410;SDS011;56604;48.652;9.194;2023-02-22T07:14:10;10.00;;;7.70;;
69410;SDS011;56604;48.652;9.194;2023-02-22T07:16:36;17.67;;;8.43;;
69410;SDS011;56604;48.652;9.194;2023-02-22T07:19:01;13.53;;;8.63;;
69410;SDS011;56604;48.652;9.194;2023-02-22T07:21:27;11.43;;;8.10;;
69410;SDS011;56604;48.652;9.194;2023-02-22T07:23:53;13.57;;;7.83;;
69410;SDS011;56604;48.652;9.194;2023-02-22T07:26:19;12.53;;;7.90;;
69410;SDS011;56604;48.652;9.194;2023-02-22T07:28:45;10.13;;;6.20;;
69410;SDS011;56604;48.652;9.194;2023-02-22T07:31:12;7.17;;;6.07;;
69410;SDS011;56604;48.652;9.194;2023-02-22T07:33:37;6.57;;;5.87;;
69410;SDS011;56604;48.652;9.194;2023-02-22T07:36:03;8.57;;;5.40;;
69410;SDS011;56604;48.652;9.194;2023-02-22T07:38:30;6.93;;;5.50;;
69410;SDS011;56604;48.652;9.194;2023-02-22T07:40:56;9.47;;;5.97;;
69410;SDS011;56604;48.652;9.194;2023-02-22T07:43:30;9.57;;;5.50;;
69410;SDS011;56604;48.652;9.194;2023-02-22T07:45:56;5.67;;;5.17;;
69410;SDS011;56604;48.652;9.194;2023-02-22T07:48:24;8.50;;;5.07;;
69410;SDS011;56604;48.652;9.194;2023-02-22T07:50:51;9.03;;;4.57;;
69410;SDS011;56604;48.652;9.194;2023-02-22T07:53:18;9.03;;;5.43;;
69410;SDS011;56604;48.652;9.194;2023-02-22T07:55:45;10.63;;;4.67;;
69410;SDS011;56604;48.652;9.194;2023-02-22T07:58:14;7.07;;;4.90;;
69410;SDS011;56604;48.652;9.194;2023-02-22T08:00:40;9.63;;;5.43;;
69410;SDS011;56604;48.652;9.194;2023-02-22T08:03:10;6.77;;;5.23;;
69410;SDS011;56604;48.652;9.194;2023-02-22T08:05:38;16.80;;;5.50;;
69410;SDS011;56604;48.652;9.194;2023-02-22T08:08:04;15.30;;;5.20;;
69410;SDS011;56604;48.652;9.194;2023-02-22T08:10:31;13.73;;;6.30;;
69410;SDS011;56604;48.652;9.194;2023-02-22T08:12:57;8.97;;;5.37;;
69410;SDS011;56604;48.652;9.194;2023-02-22T08:17:52;10.47;;;5.93;;
69410;SDS011;56604;48.652;9.194;2023-02-22T08:20:18;10.83;;;6.27;;
69410;SDS011;56604;48.652;9.194;2023-02-22T08:22:44;9.63;;;6.67;;
69410;SDS011;56604;48.652;9.194;2023-02-22T08:25:10;9.67;;;6.13;;
69410;SDS011;56604;48.652;9.194;2023-02-22T08:27:37;9.60;;;5.87;;
69410;SDS011;56604;48.652;9.194;2023-02-22T08:30:02;9.70;;;6.73;;
69410;SDS011;56604;48.652;9.194;2023-02-22T08:32:29;9.60;;;6.07;;
69410;SDS011;56604;48.652;9.194;2023-02-22T08:34:54;11.00;;;6.40;;
69410;SDS011;56604;48.652;9.194;2023-02-22T08:37:20;9.47;;;6.60;;
69410;SDS011;56604;48.652;9.194;2023-02-22T08:39:45;5.90;;;5.30;;
69410;SDS011;56604;48.652;9.194;2023-02-22T08:42:10;8.10;;;5.60;;
69410;SDS011;56604;48.652;9.194;2023-02-22T08:44:36;8.43;;;5.10;;
69410;SDS011;56604;48.652;9.194;2023-02-22T08:47:03;6.93;;;5.80;;
69410;SDS011;56604;48.652;9.194;2023-02-22T08:49:28;6.90;;;6.07;;
69410;SDS011;56604;48.652;9.194;2023-02-22T08:51:54;12.00;;;5.77;;
69410;SDS011;56604;48.652;9.194;2023-02-22T08:54:19;10.33;;;5.70;;
69410;SDS011;56604;48.652;9.194;2023-02-22T08:56:46;11.60;;;5.40;;
69410;SDS011;56604;48.652;9.194;2023-02-22T08:59:11;9.60;;;5.33;;
69410;SDS011;56604;48.652;9.194;2023-02-22T09:01:37;13.60;;;5.23;;
69410;SDS011;56604;48.652;9.194;2023-02-22T09:04:02;7.00;;;5.33;;
69410;SDS011;56604;48.652;9.194;2023-02-22T09:06:28;9.03;;;6.03;;
69410;SDS011;56604;48.652;9.194;2023-02-22T09:08:54;7.47;;;6.10;;
69410;SDS011;56604;48.652;9.194;2023-02-22T09:11:19;7.37;;;5.53;;
69410;SDS011;56604;48.652;9.194;2023-02-22T09:13:45;11.90;;;5.97;;
69410;SDS011;56604;48.652;9.194;2023-02-22T09:16:10;18.83;;;5.77;;
69410;SDS011;56604;48.652;9.194;2023-02-22T09:18:35;12.63;;;6.10;;
69410;SDS011;56604;48.652;9.194;2023-02-22T09:21:01;12.30;;;5.70;;
69410;SDS011;56604;48.652;9.194;2023-02-22T09:23:27;23.33;;;6.13;;
69410;SDS011;56604;48.652;9.194;2023-02-22T09:25:52;15.20;;;6.10;;
69410;SDS011;56604;48.652;9.194;2023-02-22T09:28:17;16.73;;;5.87;;
69410;SDS011;56604;48.652;9.194;2023-02-22T09:30:43;11.53;;;5.80;;
69410;SDS011;56604;48.652;9.194;2023-02-22T09:33:09;9.97;;;6.10;;
69410;SDS011;56604;48.652;9.194;2023-02-22T09:35:37;9.40;;;5.73;;
69410;SDS011;56604;48.652;9.194;2023-02-22T09:38:06;9.83;;;5.17;;
69410;SDS011;56604;48.652;9.194;2023-02-22T09:40:32;8.33;;;5.63;;
69410;SDS011;56604;48.652;9.194;2023-02-22T09:43:23;6.23;;;5.33;;
69410;SDS011;56604;48.652;9.194;2023-02-22T09:51:54;12.27;;;5.20;;
69410;SDS011;56604;48.652;9.194;2023-02-22T09:54:53;9.13;;;5.53;;
69410;SDS011;56604;48.652;9.194;2023-02-22T09:57:47;6.80;;;5.20;;
69410;SDS011;56604;48.652;9.194;2023-02-22T10:00:17;5.27;;;4.73;;
69410;SDS011;56604;48.652;9.194;2023-02-22T10:02:58;17.60;;;5.10;;
69410;SDS011;56604;48.652;9.194;2023-02-22T10:05:36;12.50;;;4.97;;
69410;SDS011;56604;48.652;9.194;2023-02-22T10:08:04;17.10;;;6.00;;
69410;SDS011;56604;48.652;9.194;2023-02-22T10:10:38;20.63;;;8.53;;
69410;SDS011;56604;48.652;9.194;2023-02-22T10:16:04;25.30;;;9.13;;
69410;SDS011;56604;48.652;9.194;2023-02-22T10:23:32;22.20;;;8.60;;
69410;SDS011;56604;48.652;9.194;2023-02-22T10:26:12;23.77;;;9.87;;
69410;SDS011;56604;48.652;9.194;2023-02-22T10:28:41;19.90;;;9.90;;
69410;SDS011;56604;48.652;9.194;2023-02-22T10:31:13;12.73;;;8.40;;
69410;SDS011;56604;48.652;9.194;2023-02-22T10:33:47;14.50;;;8.03;;
69410;SDS011;56604;48.652;9.194;2023-02-22T10:36:21;11.30;;;7.57;;
69410;SDS011;56604;48.652;9.194;2023-02-22T10:38:52;14.80;;;7.57;;
69410;SDS011;56604;48.652;9.194;2023-02-22T10:41:31;21.63;;;8.20;;
69410;SDS011;56604;48.652;9.194;2023-02-22T10:44:00;12.73;;;8.70;;
69410;SDS011;56604;48.652;9.194;2023-02-22T10:46:26;20.80;;;9.50;;
69410;SDS011;56604;48.652;9.194;2023-02-22T10:48:55;20.93;;;9.30;;
69410;SDS011;56604;48.652;9.194;2023-02-22T10:51:26;20.00;;;9.63;;
69410;SDS011;56604;48.652;9.194;2023-02-22T10:56:33;20.53;;;9.77;;
69410;SDS011;56604;48.652;9.194;2023-02-22T10:58:59;22.70;;;10.40;;
69410;SDS011;56604;48.652;9.194;2023-02-22T11:06:35;19.40;;;9.93;;
69410;SDS011;56604;48.652;9.194;2023-02-22T11:09:15;19.33;;;10.67;;
69410;SDS011;56604;48.652;9.194;2023-02-22T11:14:45;16.23;;;9.37;;
69410;SDS011;56604;48.652;9.194;2023-02-22T11:17:12;21.67;;;10.17;;
69410;SDS011;56604;48.652;9.194;2023-02-22T11:19:48;17.17;;;8.73;;
69410;SDS011;56604;48.652;9.194;2023-02-22T11:22:19;30.13;;;10.10;;
69410;SDS011;56604;48.652;9.194;2023-02-22T11:25:00;27.30;;;10.13;;
69410;SDS011;56604;48.652;9.194;2023-02-22T11:27:29;41.63;;;11.73;;
69410;SDS011;56604;48.652;9.194;2023-02-22T11:30:23;15.50;;;9.83;;
69410;SDS011;56604;48.652;9.194;2023-02-22T11:32:55;15.50;;;10.00;;
69410;SDS011;56604;48.652;9.194;2023-02-22T11:38:29;17.40;;;9.90;;
69410;SDS011;56604;48.652;9.194;2023-02-22T11:43:28;16.90;;;9.70;;
69410;SDS011;56604;48.652;9.194;2023-02-22T11:48:27;15.70;;;9.37;;
69410;SDS011;56604;48.652;9.194;2023-02-22T11:54:43;19.93;;;8.50;;
69410;SDS011;56604;48.652;9.194;2023-02-22T11:57:08;20.83;;;9.87;;
69410;SDS011;56604;48.652;9.194;2023-02-22T11:59:44;12.03;;;8.30;;
69410;SDS011;56604;48.652;9.194;2023-02-22T12:05:11;15.60;;;9.40;;
69410;SDS011;56604;48.652;9.194;2023-02-22T12:10:35;19.77;;;9.60;;
69410;SDS011;56604;48.652;9.194;2023-02-22T12:21:29;22.63;;;10.67;;
69410;SDS011;56604;48.652;9.194;2023-02-22T12:26:35;26.27;;;9.50;;
69410;SDS011;56604;48.652;9.194;2023-02-22T12:29:08;16.47;;;10.80;;
69410;SDS011;56604;48.652;9.194;2023-02-22T12:35:02;22.73;;;10.30;;
69410;SDS011;56604;48.652;9.194;2023-02-22T12:37:43;16.47;;;8.80;;
69410;SDS011;56604;48.652;9.194;2023-02-22T12:40:26;27.30;;;11.90;;
69410;SDS011;56604;48.652;9.194;2023-02-22T12:45:35;17.87;;;10.20;;
69410;SDS011;56604;48.652;9.194;2023-02-22T12:50:44;13.70;;;9.40;;
69410;SDS011;56604;48.652;9.194;2023-02-22T12:53:15;27.07;;;9.80;;
69410;SDS011;56604;48.652;9.194;2023-02-22T12:55:51;18.53;;;10.23;;
69410;SDS011;56604;48.652;9.194;2023-02-22T12:58:24;25.00;;;10.63;;
69410;SDS011;56604;48.652;9.194;2023-02-22T13:01:15;26.13;;;10.73;;
69410;SDS011;56604;48.652;9.194;2023-02-22T13:03:43;18.87;;;10.87;;
69410;SDS011;56604;48.652;9.194;2023-02-22T13:17:08;26.00;;;10.27;;
69410;SDS011;56604;48.652;9.194;2023-02-22T13:22:39;26.43;;;10.80;;
69410;SDS011;56604;48.652;9.194;2023-02-22T13:27:58;28.07;;;11.00;;
69410;SDS011;56604;48.652;9.194;2023-02-22T13:30:49;13.40;;;9.53;;
69410;SDS011;56604;48.652;9.194;2023-02-22T13:53:38;21.30;;;10.60;;
69410;SDS011;56604;48.652;9.194;2023-02-22T13:56:20;20.37;;;12.00;;
69410;SDS011;56604;48.652;9.194;2023-02-22T13:58:49;19.03;;;10.73;;
69410;SDS011;56604;48.652;9.194;2023-02-22T14:06:51;19.10;;;10.57;;
69410;SDS011;56604;48.652;9.194;2023-02-22T14:10:20;17.23;;;9.90;;
69410;SDS011;56604;48.652;9.194;2023-02-22T14:17:41;15.80;;;9.83;;
69410;SDS011;56604;48.652;9.194;2023-02-22T14:20:24;19.07;;;10.83;;
69410;SDS011;56604;48.652;9.194;2023-02-22T14:23:24;16.30;;;11.23;;
69410;SDS011;56604;48.652;9.194;2023-02-22T14:29:24;15.20;;;9.80;;
69410;SDS011;56604;48.652;9.194;2023-02-22T14:34:17;19.80;;;10.70;;
69410;SDS011;56604;48.652;9.194;2023-02-22T14:39:26;34.97;;;12.27;;
69410;SDS011;56604;48.652;9.194;2023-02-22T14:44:26;20.93;;;10.67;;
69410;SDS011;56604;48.652;9.194;2023-02-22T14:46:58;14.83;;;9.80;;
69410;SDS011;56604;48.652;9.194;2023-02-22T14:49:29;19.50;;;9.67;;
69410;SDS011;56604;48.652;9.194;2023-02-22T14:52:01;19.80;;;9.90;;
69410;SDS011;56604;48.652;9.194;2023-02-22T15:00:21;23.27;;;11.87;;
69410;SDS011;56604;48.652;9.194;2023-02-22T15:02:54;20.10;;;10.67;;
69410;SDS011;56604;48.652;9.194;2023-02-22T15:05:23;17.70;;;10.00;;
69410;SDS011;56604;48.652;9.194;2023-02-22T15:07:58;24.40;;;10.87;;
69410;SDS011;56604;48.652;9.194;2023-02-22T15:10:28;15.83;;;9.97;;
69410;SDS011;56604;48.652;9.194;2023-02-22T15:12:57;22.50;;;11.67;;
69410;SDS011;56604;48.652;9.194;2023-02-22T15:15:42;16.43;;;10.03;;
69410;SDS011;56604;48.652;9.194;2023-02-22T15:18:16;28.27;;;11.03;;
69410;SDS011;56604;48.652;9.194;2023-02-22T15:20:46;20.53;;;10.90;;
69410;SDS011;56604;48.652;9.194;2023-02-22T15:23:13;19.30;;;11.80;;
69410;SDS011;56604;48.652;9.194;2023-02-22T15:25:40;13.90;;;10.20;;
69410;SDS011;56604;48.652;9.194;2023-02-22T15:28:12;19.53;;;11.17;;
69410;SDS011;56604;48.652;9.194;2023-02-22T15:30:39;18.50;;;12.20;;
69410;SDS011;56604;48.652;9.194;2023-02-22T15:33:15;24.13;;;11.60;;
69410;SDS011;56604;48.652;9.194;2023-02-22T15:35:51;27.13;;;10.07;;
69410;SDS011;56604;48.652;9.194;2023-02-22T15:38:19;23.50;;;11.03;;
69410;SDS011;56604;48.652;9.194;2023-02-22T15:41:00;19.50;;;11.10;;
69410;SDS011;56604;48.652;9.194;2023-02-22T15:43:27;22.53;;;10.87;;
69410;SDS011;56604;48.652;9.194;2023-02-22T15:45:53;40.70;;;11.67;;
69410;SDS011;56604;48.652;9.194;2023-02-22T15:48:20;19.70;;;12.03;;
69410;SDS011;56604;48.652;9.194;2023-02-22T15:50:58;22.07;;;12.60;;
69410;SDS011;56604;48.652;9.194;2023-02-22T15:53:41;32.80;;;12.30;;
69410;SDS011;56604;48.652;9.194;2023-02-22T15:56:23;23.63;;;12.07;;
69410;SDS011;56604;48.652;9.194;2023-02-22T15:58:57;23.50;;;11.10;;
69410;SDS011;56604;48.652;9.194;2023-02-22T16:01:25;17.37;;;11.33;;
69410;SDS011;56604;48.652;9.194;2023-02-22T16:03:54;22.77;;;11.40;;
69410;SDS011;56604;48.652;9.194;2023-02-22T16:09:00;25.40;;;11.63;;
69410;SDS011;56604;48.652;9.194;2023-02-22T16:11:50;24.30;;;11.13;;
69410;SDS011;56604;48.652;9.194;2023-02-22T16:22:43;21.63;;;11.23;;
69410;SDS011;56604;48.652;9.194;2023-02-22T16:30:28;20.23;;;11.97;;
69410;SDS011;56604;48.652;9.194;2023-02-22T16:32:56;27.63;;;12.30;;
69410;SDS011;56604;48.652;9.194;2023-02-22T16:35:25;24.77;;;13.30;;
69410;SDS011;56604;48.652;9.194;2023-02-22T16:38:03;32.83;;;13.43;;
69410;SDS011;56604;48.652;9.194;2023-02-22T16:40:41;28.27;;;12.77;;
69410;SDS011;56604;48.652;9.194;2023-02-22T16:43:19;21.87;;;13.17;;
69410;SDS011;56604;48.652;9.194;2023-02-22T16:45:46;24.83;;;12.43;;
69410;SDS011;56604;48.652;9.194;2023-02-22T16:48:13;21.97;;;12.90;;
69410;SDS011;56604;48.652;9.194;2023-02-22T16:50:42;21.60;;;13.07;;
69410;SDS011;56604;48.652;9.194;2023-02-22T16:53:07;21.83;;;13.10;;
69410;SDS011;56604;48.652;9.194;2023-02-22T16:55:33;25.03;;;13.33;;
69410;SDS011;56604;48.652;9.194;2023-02-22T16:58:00;29.20;;;14.40;;
69410;SDS011;56604;48.652;9.194;2023-02-22T17:00:27;31.83;;;14.40;;
69410;SDS011;56604;48.652;9.194;2023-02-22T17:02:56;27.30;;;16.50;;
69410;SDS011;56604;48.652;9.194;2023-02-22T17:05:28;28.27;;;16.50;;
69410;SDS011;56604;48.652;9.194;2023-02-22T17:07:54;44.93;;;20.37;;
69410;SDS011;56604;48.652;9.194;2023-02-22T17:10:19;42.13;;;22.40;;
69410;SDS011;56604;48.652;9.194;2023-02-22T17:12:46;49.50;;;20.43;;
69410;SDS011;56604;48.652;9.194;2023-02-22T17:15:27;54.20;;;21.60;;
69410;SDS011;56604;48.652;9.194;2023-02-22T17:17:54;35.73;;;18.20;;
69410;SDS011;56604;48.652;9.194;2023-02-22T17:20:20;42.87;;;19.77;;
69410;SDS011;56604;48.652;9.194;2023-02-22T17:25:29;41.77;;;18.63;;
69410;SDS011;56604;48.652;9.194;2023-02-22T17:27:58;35.00;;;17.50;;
69410;SDS011;56604;48.652;9.194;2023-02-22T17:30:24;35.83;;;16.67;;
69410;SDS011;56604;48.652;9.194;2023-02-22T17:32:49;36.23;;;17.30;;
69410;SDS011;56604;48.652;9.194;2023-02-22T17:35:17;50.63;;;23.83;;
69410;SDS011;56604;48.652;9.194;2023-02-22T17:37:45;45.33;;;20.93;;
69410;SDS011;56604;48.652;9.194;2023-02-22T17:40:11;37.90;;;18.40;;
69410;SDS011;56604;48.652;9.194;2023-02-22T17:42:41;38.60;;;18.50;;